Flugplatz Segelflug Baumerlenbach (UL)

Hier findest Du alle Informationen zum Flugplatz Segelflug Baumerlenbach (UL).

Informationen für Piloten zum Flugplatz Segelflug Baumerlenbach

Hier findest Du alle relevanten Informationen, die Du als Pilot benötigst, um Segelflug Baumerlenbach anzufliegen.

Flugplatz: Segelflug Baumerlenbach ICAO-Code: UL Flugplatz
Frequenz Turm: 118.115 Mhz GAFOR Gebiet: 55
Frequenz Ground: 118.115 Mhz Mogas: nein
Platzrunde: S 1400 ft Landegebühr: -
Platzhöhe: - Sunrise: 05:52 Uhr UTC
Pisten: 08/26 - 450 m x 30 m, GRAS Sunset: 17:14 Uhr UTC

Mitglieder, die in Segelflug Baumerlenbach fliegen

Flugwetter am Flugplatz Segelflug Baumerlenbach

Die METAR Information stammen aus EDDS (61.81 km entfernt).

METAR Code:
2021/02/22 11:20
EDDS 221120Z 10003KT 040V160 CAVOK 10/04 Q1022 NOSIG

Flugschulen am Flugplatz Segelflug Baumerlenbach

Am Flugplatz Segelflug Baumerlenbach gibt es leider keine Flugschule.

Benachbarte Flugplätze und Flugschulen

Es gibt 18 weitere Flugplätze in einem Umkreis von 50 km um den Flugplatz Segelflug Baumerlenbach.

Jetzt anmelden

Passwort vergessen

Umfrage Archiv

Seid Ihr aufgrund von Corona im Jahr 2020 mehr oder weniger geflogen als im Jahr zuvor?

weniger
54.5 %
gleich viel
28.1 %
mehr
17.4 %
Stimmen: 121 | Diskussion
Anzeige: Roland Aircraft
Statistik Alle Mitglieder

Aktuell sind 53 Besucher online.

Anzeige: VFR Sprechfunk Simulator


Anzeige: Pocket FMS